sensor_id;sensor_type;location;lat;lon;timestamp;P1;durP1;ratioP1;P2;durP2;ratioP2
3133;SDS011;1577;49.912;10.924;2023-12-20T00:00:56;13.37;;;9.77;;
3133;SDS011;1577;49.912;10.924;2023-12-20T00:03:22;14.60;;;10.00;;
3133;SDS011;1577;49.912;10.924;2023-12-20T00:05:49;10.97;;;9.70;;
3133;SDS011;1577;49.912;10.924;2023-12-20T00:08:15;14.30;;;9.63;;
3133;SDS011;1577;49.912;10.924;2023-12-20T00:10:41;13.97;;;10.37;;
3133;SDS011;1577;49.912;10.924;2023-12-20T00:13:06;12.37;;;9.27;;
3133;SDS011;1577;49.912;10.924;2023-12-20T00:15:33;17.00;;;10.47;;
3133;SDS011;1577;49.912;10.924;2023-12-20T00:17:59;11.93;;;9.13;;
3133;SDS011;1577;49.912;10.924;2023-12-20T00:20:25;11.50;;;8.50;;
3133;SDS011;1577;49.912;10.924;2023-12-20T00:22:51;13.20;;;9.27;;
3133;SDS011;1577;49.912;10.924;2023-12-20T00:25:17;12.10;;;9.13;;
3133;SDS011;1577;49.912;10.924;2023-12-20T00:27:42;13.90;;;10.10;;
3133;SDS011;1577;49.912;10.924;2023-12-20T00:30:08;15.43;;;9.20;;
3133;SDS011;1577;49.912;10.924;2023-12-20T00:32:35;12.63;;;9.70;;
3133;SDS011;1577;49.912;10.924;2023-12-20T00:35:00;14.67;;;9.10;;
3133;SDS011;1577;49.912;10.924;2023-12-20T00:37:26;12.40;;;8.53;;
3133;SDS011;1577;49.912;10.924;2023-12-20T00:39:52;13.40;;;9.13;;
3133;SDS011;1577;49.912;10.924;2023-12-20T00:42:18;13.77;;;9.20;;
3133;SDS011;1577;49.912;10.924;2023-12-20T00:44:43;10.13;;;8.03;;
3133;SDS011;1577;49.912;10.924;2023-12-20T00:47:09;10.37;;;8.30;;
3133;SDS011;1577;49.912;10.924;2023-12-20T00:49:35;9.23;;;7.97;;
3133;SDS011;1577;49.912;10.924;2023-12-20T00:52:00;11.33;;;7.57;;
3133;SDS011;1577;49.912;10.924;2023-12-20T00:54:26;8.70;;;6.90;;
3133;SDS011;1577;49.912;10.924;2023-12-20T00:56:51;10.00;;;7.40;;
3133;SDS011;1577;49.912;10.924;2023-12-20T00:59:17;11.43;;;7.10;;
3133;SDS011;1577;49.912;10.924;2023-12-20T01:01:44;7.23;;;6.37;;
3133;SDS011;1577;49.912;10.924;2023-12-20T01:04:10;8.90;;;6.00;;
3133;SDS011;1577;49.912;10.924;2023-12-20T01:06:35;8.30;;;6.60;;
3133;SDS011;1577;49.912;10.924;2023-12-20T01:09:01;7.10;;;6.00;;
3133;SDS011;1577;49.912;10.924;2023-12-20T01:11:27;7.10;;;5.63;;
3133;SDS011;1577;49.912;10.924;2023-12-20T01:13:53;6.47;;;5.37;;
3133;SDS011;1577;49.912;10.924;2023-12-20T01:16:18;10.43;;;5.50;;
3133;SDS011;1577;49.912;10.924;2023-12-20T01:18:44;6.60;;;4.90;;
3133;SDS011;1577;49.912;10.924;2023-12-20T01:21:10;4.87;;;4.10;;
3133;SDS011;1577;49.912;10.924;2023-12-20T01:23:35;4.10;;;3.70;;
3133;SDS011;1577;49.912;10.924;2023-12-20T01:26:01;4.60;;;3.77;;
3133;SDS011;1577;49.912;10.924;2023-12-20T01:28:27;4.47;;;3.40;;
3133;SDS011;1577;49.912;10.924;2023-12-20T01:30:53;5.63;;;3.90;;
3133;SDS011;1577;49.912;10.924;2023-12-20T01:33:19;3.33;;;3.03;;
3133;SDS011;1577;49.912;10.924;2023-12-20T01:35:44;3.73;;;3.20;;
3133;SDS011;1577;49.912;10.924;2023-12-20T01:38:10;4.37;;;2.73;;
3133;SDS011;1577;49.912;10.924;2023-12-20T01:40:35;3.10;;;2.50;;
3133;SDS011;1577;49.912;10.924;2023-12-20T01:43:01;4.53;;;3.63;;
3133;SDS011;1577;49.912;10.924;2023-12-20T01:45:31;2.57;;;2.30;;
3133;SDS011;1577;49.912;10.924;2023-12-20T01:47:57;2.60;;;2.40;;
3133;SDS011;1577;49.912;10.924;2023-12-20T01:50:24;3.00;;;2.10;;
3133;SDS011;1577;49.912;10.924;2023-12-20T01:52:50;3.17;;;2.07;;
3133;SDS011;1577;49.912;10.924;2023-12-20T01:55:20;2.50;;;1.80;;
3133;SDS011;1577;49.912;10.924;2023-12-20T01:57:46;2.60;;;1.90;;
3133;SDS011;1577;49.912;10.924;2023-12-20T02:00:12;2.10;;;1.90;;
3133;SDS011;1577;49.912;10.924;2023-12-20T02:02:40;2.10;;;1.90;;
3133;SDS011;1577;49.912;10.924;2023-12-20T02:05:06;2.60;;;2.10;;
3133;SDS011;1577;49.912;10.924;2023-12-20T02:07:32;2.83;;;1.90;;
3133;SDS011;1577;49.912;10.924;2023-12-20T02:10:01;2.17;;;1.97;;
3133;SDS011;1577;49.912;10.924;2023-12-20T02:12:27;2.53;;;1.63;;
3133;SDS011;1577;49.912;10.924;2023-12-20T02:14:52;1.83;;;1.73;;
3133;SDS011;1577;49.912;10.924;2023-12-20T02:17:19;2.10;;;1.90;;
3133;SDS011;1577;49.912;10.924;2023-12-20T02:19:45;1.57;;;1.30;;
3133;SDS011;1577;49.912;10.924;2023-12-20T02:22:11;1.73;;;1.57;;
3133;SDS011;1577;49.912;10.924;2023-12-20T02:24:37;1.83;;;1.70;;
3133;SDS011;1577;49.912;10.924;2023-12-20T02:27:04;1.87;;;1.73;;
3133;SDS011;1577;49.912;10.924;2023-12-20T02:29:32;3.13;;;2.20;;
3133;SDS011;1577;49.912;10.924;2023-12-20T02:31:58;1.87;;;1.67;;
3133;SDS011;1577;49.912;10.924;2023-12-20T02:34:24;2.13;;;1.50;;
3133;SDS011;1577;49.912;10.924;2023-12-20T02:36:49;3.60;;;2.30;;
3133;SDS011;1577;49.912;10.924;2023-12-20T02:39:15;2.70;;;1.93;;
3133;SDS011;1577;49.912;10.924;2023-12-20T02:41:41;2.67;;;1.63;;
3133;SDS011;1577;49.912;10.924;2023-12-20T02:44:06;1.60;;;1.50;;
3133;SDS011;1577;49.912;10.924;2023-12-20T02:46:32;2.73;;;1.50;;
3133;SDS011;1577;49.912;10.924;2023-12-20T02:48:57;2.70;;;1.90;;
3133;SDS011;1577;49.912;10.924;2023-12-20T02:51:23;1.60;;;1.50;;
3133;SDS011;1577;49.912;10.924;2023-12-20T02:53:48;1.67;;;1.57;;
3133;SDS011;1577;49.912;10.924;2023-12-20T02:56:14;2.60;;;1.30;;
3133;SDS011;1577;49.912;10.924;2023-12-20T02:58:40;1.87;;;1.37;;
3133;SDS011;1577;49.912;10.924;2023-12-20T03:01:05;2.47;;;1.67;;
3133;SDS011;1577;49.912;10.924;2023-12-20T03:03:31;1.27;;;1.10;;
3133;SDS011;1577;49.912;10.924;2023-12-20T03:05:57;3.83;;;1.13;;
3133;SDS011;1577;49.912;10.924;2023-12-20T03:08:23;1.47;;;1.37;;
3133;SDS011;1577;49.912;10.924;2023-12-20T03:10:48;1.60;;;1.20;;
3133;SDS011;1577;49.912;10.924;2023-12-20T03:13:14;1.63;;;1.37;;
3133;SDS011;1577;49.912;10.924;2023-12-20T03:15:40;1.00;;;0.90;;
3133;SDS011;1577;49.912;10.924;2023-12-20T03:18:05;1.10;;;1.00;;
3133;SDS011;1577;49.912;10.924;2023-12-20T03:20:31;1.47;;;1.00;;
3133;SDS011;1577;49.912;10.924;2023-12-20T03:23:00;2.13;;;1.30;;
3133;SDS011;1577;49.912;10.924;2023-12-20T03:25:26;1.10;;;1.00;;
3133;SDS011;1577;49.912;10.924;2023-12-20T03:27:52;1.33;;;1.13;;
3133;SDS011;1577;49.912;10.924;2023-12-20T03:30:18;1.10;;;0.90;;
3133;SDS011;1577;49.912;10.924;2023-12-20T03:32:44;1.53;;;1.43;;
3133;SDS011;1577;49.912;10.924;2023-12-20T03:35:10;0.90;;;0.80;;
3133;SDS011;1577;49.912;10.924;2023-12-20T03:37:36;1.47;;;1.03;;
3133;SDS011;1577;49.912;10.924;2023-12-20T03:40:02;1.43;;;0.93;;
3133;SDS011;1577;49.912;10.924;2023-12-20T03:42:28;1.10;;;1.00;;
3133;SDS011;1577;49.912;10.924;2023-12-20T03:44:54;1.63;;;1.00;;
3133;SDS011;1577;49.912;10.924;2023-12-20T03:47:19;0.80;;;0.80;;
3133;SDS011;1577;49.912;10.924;2023-12-20T03:49:45;1.50;;;1.27;;
3133;SDS011;1577;49.912;10.924;2023-12-20T03:52:11;1.10;;;1.00;;
3133;SDS011;1577;49.912;10.924;2023-12-20T03:54:37;2.73;;;0.83;;
3133;SDS011;1577;49.912;10.924;2023-12-20T03:57:02;2.60;;;0.90;;
3133;SDS011;1577;49.912;10.924;2023-12-20T03:59:28;0.93;;;0.80;;
3133;SDS011;1577;49.912;10.924;2023-12-20T04:01:54;0.97;;;0.90;;
3133;SDS011;1577;49.912;10.924;2023-12-20T04:04:20;1.73;;;0.80;;
3133;SDS011;1577;49.912;10.924;2023-12-20T04:06:45;2.20;;;0.70;;
3133;SDS011;1577;49.912;10.924;2023-12-20T04:09:11;0.70;;;0.67;;
3133;SDS011;1577;49.912;10.924;2023-12-20T04:11:37;1.40;;;1.10;;
3133;SDS011;1577;49.912;10.924;2023-12-20T04:14:02;1.60;;;1.20;;
3133;SDS011;1577;49.912;10.924;2023-12-20T04:16:30;1.27;;;0.80;;
3133;SDS011;1577;49.912;10.924;2023-12-20T04:18:55;1.20;;;1.10;;
3133;SDS011;1577;49.912;10.924;2023-12-20T04:21:21;1.13;;;1.03;;
3133;SDS011;1577;49.912;10.924;2023-12-20T04:23:46;1.20;;;1.00;;
3133;SDS011;1577;49.912;10.924;2023-12-20T04:26:12;1.57;;;1.40;;
3133;SDS011;1577;49.912;10.924;2023-12-20T04:28:38;0.90;;;0.80;;
3133;SDS011;1577;49.912;10.924;2023-12-20T04:31:03;0.80;;;0.80;;
3133;SDS011;1577;49.912;10.924;2023-12-20T04:33:29;0.63;;;0.60;;
3133;SDS011;1577;49.912;10.924;2023-12-20T04:35:54;1.00;;;0.67;;
3133;SDS011;1577;49.912;10.924;2023-12-20T04:38:20;0.70;;;0.60;;
3133;SDS011;1577;49.912;10.924;2023-12-20T04:40:45;0.80;;;0.70;;
3133;SDS011;1577;49.912;10.924;2023-12-20T04:43:12;0.60;;;0.60;;
3133;SDS011;1577;49.912;10.924;2023-12-20T04:45:38;0.90;;;0.60;;
3133;SDS011;1577;49.912;10.924;2023-12-20T04:48:04;0.63;;;0.60;;
3133;SDS011;1577;49.912;10.924;2023-12-20T04:50:30;0.80;;;0.80;;
3133;SDS011;1577;49.912;10.924;2023-12-20T04:52:55;1.10;;;0.70;;
3133;SDS011;1577;49.912;10.924;2023-12-20T04:55:21;1.30;;;0.70;;
3133;SDS011;1577;49.912;10.924;2023-12-20T04:57:46;0.77;;;0.60;;
3133;SDS011;1577;49.912;10.924;2023-12-20T05:00:12;1.33;;;0.80;;
3133;SDS011;1577;49.912;10.924;2023-12-20T05:02:40;0.93;;;0.83;;
3133;SDS011;1577;49.912;10.924;2023-12-20T05:05:06;1.30;;;1.20;;
3133;SDS011;1577;49.912;10.924;2023-12-20T05:07:31;0.80;;;0.80;;
3133;SDS011;1577;49.912;10.924;2023-12-20T05:09:58;1.30;;;0.87;;
3133;SDS011;1577;49.912;10.924;2023-12-20T05:12:24;0.90;;;0.70;;
3133;SDS011;1577;49.912;10.924;2023-12-20T05:14:49;0.80;;;0.80;;
3133;SDS011;1577;49.912;10.924;2023-12-20T05:17:16;1.37;;;1.23;;
3133;SDS011;1577;49.912;10.924;2023-12-20T05:19:42;0.93;;;0.90;;
3133;SDS011;1577;49.912;10.924;2023-12-20T05:22:07;1.07;;;0.97;;
3133;SDS011;1577;49.912;10.924;2023-12-20T05:24:33;1.10;;;1.00;;
3133;SDS011;1577;49.912;10.924;2023-12-20T05:26:59;0.97;;;0.90;;
3133;SDS011;1577;49.912;10.924;2023-12-20T05:29:25;0.97;;;0.87;;
3133;SDS011;1577;49.912;10.924;2023-12-20T05:31:50;1.03;;;0.93;;
3133;SDS011;1577;49.912;10.924;2023-12-20T05:34:16;1.00;;;1.00;;
3133;SDS011;1577;49.912;10.924;2023-12-20T05:36:41;0.87;;;0.87;;
3133;SDS011;1577;49.912;10.924;2023-12-20T05:39:07;1.20;;;1.10;;
3133;SDS011;1577;49.912;10.924;2023-12-20T05:41:32;1.20;;;1.10;;
3133;SDS011;1577;49.912;10.924;2023-12-20T05:43:58;1.23;;;1.10;;
3133;SDS011;1577;49.912;10.924;2023-12-20T05:46:24;1.40;;;1.00;;
3133;SDS011;1577;49.912;10.924;2023-12-20T05:48:50;2.83;;;1.20;;
3133;SDS011;1577;49.912;10.924;2023-12-20T05:51:16;1.70;;;1.60;;
3133;SDS011;1577;49.912;10.924;2023-12-20T05:53:44;2.63;;;2.20;;
3133;SDS011;1577;49.912;10.924;2023-12-20T05:56:10;4.63;;;3.20;;
3133;SDS011;1577;49.912;10.924;2023-12-20T05:58:35;2.00;;;1.90;;
3133;SDS011;1577;49.912;10.924;2023-12-20T06:01:03;3.37;;;2.60;;
3133;SDS011;1577;49.912;10.924;2023-12-20T06:03:29;4.47;;;3.20;;
3133;SDS011;1577;49.912;10.924;2023-12-20T06:05:55;2.20;;;2.00;;
3133;SDS011;1577;49.912;10.924;2023-12-20T06:08:20;2.20;;;1.80;;
3133;SDS011;1577;49.912;10.924;2023-12-20T06:10:46;7.43;;;5.00;;
3133;SDS011;1577;49.912;10.924;2023-12-20T06:13:12;3.90;;;2.10;;
3133;SDS011;1577;49.912;10.924;2023-12-20T06:15:38;4.90;;;1.60;;
3133;SDS011;1577;49.912;10.924;2023-12-20T06:18:05;1.77;;;1.63;;
3133;SDS011;1577;49.912;10.924;2023-12-20T06:20:31;1.90;;;1.80;;
3133;SDS011;1577;49.912;10.924;2023-12-20T06:22:57;5.13;;;1.50;;
3133;SDS011;1577;49.912;10.924;2023-12-20T06:25:22;2.40;;;1.60;;
3133;SDS011;1577;49.912;10.924;2023-12-20T06:27:48;2.73;;;1.50;;
3133;SDS011;1577;49.912;10.924;2023-12-20T06:30:13;4.07;;;2.10;;
3133;SDS011;1577;49.912;10.924;2023-12-20T06:32:39;3.80;;;2.10;;
3133;SDS011;1577;49.912;10.924;2023-12-20T06:35:05;4.03;;;2.30;;
3133;SDS011;1577;49.912;10.924;2023-12-20T06:37:31;4.53;;;2.63;;
3133;SDS011;1577;49.912;10.924;2023-12-20T06:39:56;4.20;;;2.40;;
3133;SDS011;1577;49.912;10.924;2023-12-20T06:42:22;2.17;;;1.97;;
3133;SDS011;1577;49.912;10.924;2023-12-20T06:44:48;2.77;;;1.67;;
3133;SDS011;1577;49.912;10.924;2023-12-20T06:47:13;2.77;;;1.83;;
3133;SDS011;1577;49.912;10.924;2023-12-20T06:49:39;5.27;;;3.53;;
3133;SDS011;1577;49.912;10.924;2023-12-20T06:52:05;1.97;;;1.80;;
3133;SDS011;1577;49.912;10.924;2023-12-20T06:54:31;2.87;;;2.50;;
3133;SDS011;1577;49.912;10.924;2023-12-20T06:56:59;2.97;;;2.37;;
3133;SDS011;1577;49.912;10.924;2023-12-20T06:59:24;2.83;;;2.57;;
3133;SDS011;1577;49.912;10.924;2023-12-20T07:01:51;2.60;;;2.40;;
3133;SDS011;1577;49.912;10.924;2023-12-20T07:04:16;2.30;;;2.20;;
3133;SDS011;1577;49.912;10.924;2023-12-20T07:06:46;2.00;;;1.90;;
3133;SDS011;1577;49.912;10.924;2023-12-20T07:09:13;3.00;;;2.57;;
3133;SDS011;1577;49.912;10.924;2023-12-20T07:11:39;3.33;;;2.70;;
3133;SDS011;1577;49.912;10.924;2023-12-20T07:14:05;2.93;;;2.27;;
3133;SDS011;1577;49.912;10.924;2023-12-20T07:16:30;2.50;;;2.30;;
3133;SDS011;1577;49.912;10.924;2023-12-20T07:18:56;3.07;;;2.87;;
3133;SDS011;1577;49.912;10.924;2023-12-20T07:21:22;5.73;;;3.50;;
3133;SDS011;1577;49.912;10.924;2023-12-20T07:23:48;3.47;;;3.17;;
3133;SDS011;1577;49.912;10.924;2023-12-20T07:26:13;5.87;;;4.00;;
3133;SDS011;1577;49.912;10.924;2023-12-20T07:28:39;8.10;;;5.37;;
3133;SDS011;1577;49.912;10.924;2023-12-20T07:31:05;6.30;;;5.07;;
3133;SDS011;1577;49.912;10.924;2023-12-20T07:33:34;6.70;;;5.50;;
3133;SDS011;1577;49.912;10.924;2023-12-20T07:35:59;5.53;;;4.17;;
3133;SDS011;1577;49.912;10.924;2023-12-20T07:38:26;4.40;;;3.80;;
3133;SDS011;1577;49.912;10.924;2023-12-20T07:40:51;3.90;;;3.43;;
3133;SDS011;1577;49.912;10.924;2023-12-20T07:43:17;5.83;;;3.60;;
3133;SDS011;1577;49.912;10.924;2023-12-20T07:45:42;3.90;;;3.50;;
3133;SDS011;1577;49.912;10.924;2023-12-20T07:48:08;5.80;;;5.00;;
3133;SDS011;1577;49.912;10.924;2023-12-20T07:50:34;8.07;;;6.40;;
3133;SDS011;1577;49.912;10.924;2023-12-20T07:52:59;8.00;;;6.10;;
3133;SDS011;1577;49.912;10.924;2023-12-20T07:55:26;6.40;;;4.63;;
3133;SDS011;1577;49.912;10.924;2023-12-20T07:57:52;5.00;;;4.10;;
3133;SDS011;1577;49.912;10.924;2023-12-20T08:00:17;20.23;;;10.70;;
3133;SDS011;1577;49.912;10.924;2023-12-20T08:02:44;5.70;;;4.00;;
3133;SDS011;1577;49.912;10.924;2023-12-20T08:05:09;3.87;;;2.93;;
3133;SDS011;1577;49.912;10.924;2023-12-20T08:07:35;2.73;;;2.50;;
3133;SDS011;1577;49.912;10.924;2023-12-20T08:10:01;2.50;;;2.30;;
3133;SDS011;1577;49.912;10.924;2023-12-20T08:12:27;3.57;;;2.77;;
3133;SDS011;1577;49.912;10.924;2023-12-20T08:14:53;3.20;;;2.90;;
3133;SDS011;1577;49.912;10.924;2023-12-20T08:17:19;3.13;;;2.83;;
3133;SDS011;1577;49.912;10.924;2023-12-20T08:19:45;2.70;;;2.50;;
3133;SDS011;1577;49.912;10.924;2023-12-20T08:22:11;2.73;;;2.53;;
3133;SDS011;1577;49.912;10.924;2023-12-20T08:24:36;4.50;;;3.70;;
3133;SDS011;1577;49.912;10.924;2023-12-20T08:27:02;3.03;;;2.73;;
3133;SDS011;1577;49.912;10.924;2023-12-20T08:29:29;4.10;;;3.00;;
3133;SDS011;1577;49.912;10.924;2023-12-20T08:31:55;4.13;;;3.20;;
3133;SDS011;1577;49.912;10.924;2023-12-20T08:34:21;4.30;;;3.60;;
3133;SDS011;1577;49.912;10.924;2023-12-20T08:36:48;4.07;;;2.50;;
3133;SDS011;1577;49.912;10.924;2023-12-20T08:39:15;2.37;;;2.17;;
3133;SDS011;1577;49.912;10.924;2023-12-20T08:41:40;2.60;;;2.20;;
3133;SDS011;1577;49.912;10.924;2023-12-20T08:44:06;2.80;;;2.37;;
3133;SDS011;1577;49.912;10.924;2023-12-20T08:46:31;1.90;;;1.80;;
3133;SDS011;1577;49.912;10.924;2023-12-20T08:48:57;3.60;;;2.50;;
3133;SDS011;1577;49.912;10.924;2023-12-20T08:51:22;4.70;;;2.90;;
3133;SDS011;1577;49.912;10.924;2023-12-20T08:53:50;2.10;;;1.90;;
3133;SDS011;1577;49.912;10.924;2023-12-20T08:56:16;2.30;;;1.70;;
3133;SDS011;1577;49.912;10.924;2023-12-20T08:58:43;2.63;;;2.00;;
3133;SDS011;1577;49.912;10.924;2023-12-20T09:01:08;2.10;;;1.47;;
3133;SDS011;1577;49.912;10.924;2023-12-20T09:03:34;1.73;;;1.63;;
3133;SDS011;1577;49.912;10.924;2023-12-20T09:06:00;1.80;;;1.70;;
3133;SDS011;1577;49.912;10.924;2023-12-20T09:08:26;4.20;;;2.13;;
3133;SDS011;1577;49.912;10.924;2023-12-20T09:10:51;1.70;;;1.57;;
3133;SDS011;1577;49.912;10.924;2023-12-20T09:13:17;3.67;;;1.73;;
3133;SDS011;1577;49.912;10.924;2023-12-20T09:15:42;3.00;;;1.63;;
3133;SDS011;1577;49.912;10.924;2023-12-20T09:18:08;2.43;;;1.27;;
3133;SDS011;1577;49.912;10.924;2023-12-20T09:20:34;2.73;;;1.50;;
3133;SDS011;1577;49.912;10.924;2023-12-20T09:23:00;2.07;;;1.43;;
3133;SDS011;1577;49.912;10.924;2023-12-20T09:25:26;3.67;;;1.87;;
3133;SDS011;1577;49.912;10.924;2023-12-20T09:27:52;1.83;;;1.60;;
3133;SDS011;1577;49.912;10.924;2023-12-20T09:30:18;5.67;;;1.97;;
3133;SDS011;1577;49.912;10.924;2023-12-20T09:32:45;2.00;;;1.80;;
3133;SDS011;1577;49.912;10.924;2023-12-20T09:35:10;4.50;;;2.17;;
3133;SDS011;1577;49.912;10.924;2023-12-20T09:37:36;2.57;;;2.17;;
3133;SDS011;1577;49.912;10.924;2023-12-20T09:40:02;4.13;;;2.00;;
3133;SDS011;1577;49.912;10.924;2023-12-20T09:42:38;4.70;;;2.00;;
3133;SDS011;1577;49.912;10.924;2023-12-20T09:45:25;2.37;;;1.93;;
3133;SDS011;1577;49.912;10.924;2023-12-20T09:47:54;4.67;;;1.87;;
3133;SDS011;1577;49.912;10.924;2023-12-20T09:50:20;2.37;;;2.00;;
3133;SDS011;1577;49.912;10.924;2023-12-20T09:52:50;2.13;;;1.57;;
3133;SDS011;1577;49.912;10.924;2023-12-20T09:55:17;2.20;;;1.20;;
3133;SDS011;1577;49.912;10.924;2023-12-20T09:57:46;4.27;;;1.40;;
3133;SDS011;1577;49.912;10.924;2023-12-20T10:00:13;1.90;;;1.17;;
3133;SDS011;1577;49.912;10.924;2023-12-20T10:02:45;2.43;;;1.33;;
3133;SDS011;1577;49.912;10.924;2023-12-20T10:05:15;1.63;;;1.20;;
3133;SDS011;1577;49.912;10.924;2023-12-20T10:07:44;2.20;;;1.50;;
3133;SDS011;1577;49.912;10.924;2023-12-20T10:10:11;8.70;;;1.90;;
3133;SDS011;1577;49.912;10.924;2023-12-20T10:12:41;4.30;;;1.70;;
3133;SDS011;1577;49.912;10.924;2023-12-20T10:15:26;2.50;;;1.30;;
3133;SDS011;1577;49.912;10.924;2023-12-20T10:17:52;3.57;;;1.33;;
3133;SDS011;1577;49.912;10.924;2023-12-20T10:20:19;5.93;;;1.87;;
3133;SDS011;1577;49.912;10.924;2023-12-20T10:22:45;5.57;;;1.83;;
3133;SDS011;1577;49.912;10.924;2023-12-20T10:25:11;2.37;;;1.90;;
3133;SDS011;1577;49.912;10.924;2023-12-20T10:27:37;3.00;;;1.47;;
3133;SDS011;1577;49.912;10.924;2023-12-20T10:30:03;4.40;;;1.50;;
3133;SDS011;1577;49.912;10.924;2023-12-20T10:32:29;3.73;;;1.37;;
3133;SDS011;1577;49.912;10.924;2023-12-20T10:34:56;4.13;;;1.83;;
3133;SDS011;1577;49.912;10.924;2023-12-20T10:37:22;4.37;;;1.70;;
3133;SDS011;1577;49.912;10.924;2023-12-20T10:39:51;3.40;;;1.43;;
3133;SDS011;1577;49.912;10.924;2023-12-20T10:42:21;2.43;;;1.30;;
3133;SDS011;1577;49.912;10.924;2023-12-20T10:44:47;1.43;;;1.07;;
3133;SDS011;1577;49.912;10.924;2023-12-20T10:47:14;6.40;;;1.73;;
3133;SDS011;1577;49.912;10.924;2023-12-20T10:49:41;2.67;;;1.37;;
3133;SDS011;1577;49.912;10.924;2023-12-20T10:52:07;1.20;;;1.10;;
3133;SDS011;1577;49.912;10.924;2023-12-20T10:54:34;4.30;;;1.77;;
3133;SDS011;1577;49.912;10.924;2023-12-20T10:57:00;3.60;;;1.57;;
3133;SDS011;1577;49.912;10.924;2023-12-20T10:59:30;8.47;;;2.20;;
3133;SDS011;1577;49.912;10.924;2023-12-20T11:01:58;5.20;;;1.83;;
3133;SDS011;1577;49.912;10.924;2023-12-20T11:04:36;4.33;;;1.13;;
3133;SDS011;1577;49.912;10.924;2023-12-20T11:09:54;1.20;;;1.10;;
3133;SDS011;1577;49.912;10.924;2023-12-20T11:12:32;4.30;;;1.53;;
3133;SDS011;1577;49.912;10.924;2023-12-20T11:15:13;4.47;;;1.97;;
3133;SDS011;1577;49.912;10.924;2023-12-20T11:17:40;8.40;;;1.70;;
3133;SDS011;1577;49.912;10.924;2023-12-20T11:20:09;2.50;;;1.53;;
3133;SDS011;1577;49.912;10.924;2023-12-20T11:22:38;3.73;;;1.30;;
3133;SDS011;1577;49.912;10.924;2023-12-20T11:25:16;6.97;;;1.50;;
3133;SDS011;1577;49.912;10.924;2023-12-20T11:27:42;2.93;;;1.83;;
3133;SDS011;1577;49.912;10.924;2023-12-20T11:30:08;6.53;;;1.67;;
3133;SDS011;1577;49.912;10.924;2023-12-20T11:32:35;4.37;;;1.40;;
3133;SDS011;1577;49.912;10.924;2023-12-20T11:35:16;6.20;;;1.50;;
3133;SDS011;1577;49.912;10.924;2023-12-20T11:37:44;1.87;;;1.30;;
3133;SDS011;1577;49.912;10.924;2023-12-20T11:40:15;2.90;;;1.10;;
3133;SDS011;1577;49.912;10.924;2023-12-20T11:42:42;4.77;;;1.43;;
3133;SDS011;1577;49.912;10.924;2023-12-20T11:45:14;5.23;;;1.60;;
3133;SDS011;1577;49.912;10.924;2023-12-20T11:47:45;1.40;;;0.80;;
3133;SDS011;1577;49.912;10.924;2023-12-20T11:50:11;5.73;;;1.37;;
3133;SDS011;1577;49.912;10.924;2023-12-20T11:52:37;4.10;;;1.10;;
3133;SDS011;1577;49.912;10.924;2023-12-20T11:55:03;6.03;;;1.73;;
3133;SDS011;1577;49.912;10.924;2023-12-20T11:57:29;3.93;;;1.33;;
3133;SDS011;1577;49.912;10.924;2023-12-20T11:59:56;3.67;;;1.20;;
3133;SDS011;1577;49.912;10.924;2023-12-20T12:02:21;4.03;;;1.33;;
3133;SDS011;1577;49.912;10.924;2023-12-20T12:04:48;5.30;;;1.20;;
3133;SDS011;1577;49.912;10.924;2023-12-20T12:07:15;2.80;;;1.37;;
3133;SDS011;1577;49.912;10.924;2023-12-20T12:09:41;8.10;;;1.57;;
3133;SDS011;1577;49.912;10.924;2023-12-20T12:12:08;6.40;;;1.47;;
3133;SDS011;1577;49.912;10.924;2023-12-20T12:14:33;2.50;;;1.53;;
3133;SDS011;1577;49.912;10.924;2023-12-20T12:17:01;7.67;;;1.50;;
3133;SDS011;1577;49.912;10.924;2023-12-20T12:19:28;2.70;;;1.40;;
3133;SDS011;1577;49.912;10.924;2023-12-20T12:24:35;2.97;;;1.63;;
3133;SDS011;1577;49.912;10.924;2023-12-20T12:27:01;12.13;;;2.03;;
3133;SDS011;1577;49.912;10.924;2023-12-20T12:29:27;4.00;;;1.60;;
3133;SDS011;1577;49.912;10.924;2023-12-20T12:31:52;5.23;;;2.00;;
3133;SDS011;1577;49.912;10.924;2023-12-20T12:34:18;6.73;;;1.67;;
3133;SDS011;1577;49.912;10.924;2023-12-20T12:36:44;2.77;;;1.23;;
3133;SDS011;1577;49.912;10.924;2023-12-20T12:39:13;5.00;;;1.37;;
3133;SDS011;1577;49.912;10.924;2023-12-20T12:41:42;4.33;;;1.70;;
3133;SDS011;1577;49.912;10.924;2023-12-20T12:44:08;5.10;;;2.03;;
3133;SDS011;1577;49.912;10.924;2023-12-20T12:46:34;6.07;;;2.40;;
3133;SDS011;1577;49.912;10.924;2023-12-20T12:48:59;3.63;;;1.63;;
3133;SDS011;1577;49.912;10.924;2023-12-20T12:51:25;4.77;;;2.80;;
3133;SDS011;1577;49.912;10.924;2023-12-20T12:53:51;5.13;;;1.80;;
3133;SDS011;1577;49.912;10.924;2023-12-20T12:56:16;8.43;;;2.00;;
3133;SDS011;1577;49.912;10.924;2023-12-20T12:58:42;4.93;;;1.93;;
3133;SDS011;1577;49.912;10.924;2023-12-20T13:01:08;3.40;;;1.47;;
3133;SDS011;1577;49.912;10.924;2023-12-20T13:03:34;9.90;;;1.60;;
3133;SDS011;1577;49.912;10.924;2023-12-20T13:06:00;8.30;;;1.90;;
3133;SDS011;1577;49.912;10.924;2023-12-20T13:08:26;5.07;;;1.47;;
3133;SDS011;1577;49.912;10.924;2023-12-20T13:10:53;7.70;;;2.70;;
3133;SDS011;1577;49.912;10.924;2023-12-20T13:13:18;3.30;;;1.73;;
3133;SDS011;1577;49.912;10.924;2023-12-20T13:15:44;7.83;;;2.97;;
3133;SDS011;1577;49.912;10.924;2023-12-20T13:18:17;10.63;;;1.90;;
3133;SDS011;1577;49.912;10.924;2023-12-20T13:20:43;1.37;;;1.27;;
3133;SDS011;1577;49.912;10.924;2023-12-20T13:23:09;4.87;;;1.37;;
3133;SDS011;1577;49.912;10.924;2023-12-20T13:25:35;4.30;;;1.83;;
3133;SDS011;1577;49.912;10.924;2023-12-20T13:28:01;5.80;;;2.00;;
3133;SDS011;1577;49.912;10.924;2023-12-20T13:30:28;5.10;;;1.40;;
3133;SDS011;1577;49.912;10.924;2023-12-20T13:32:53;7.70;;;1.80;;
3133;SDS011;1577;49.912;10.924;2023-12-20T13:35:19;2.93;;;2.10;;
3133;SDS011;1577;49.912;10.924;2023-12-20T13:37:45;9.50;;;5.37;;
3133;SDS011;1577;49.912;10.924;2023-12-20T13:40:11;4.87;;;1.67;;
3133;SDS011;1577;49.912;10.924;2023-12-20T13:42:37;2.77;;;1.60;;
3133;SDS011;1577;49.912;10.924;2023-12-20T13:45:03;6.27;;;1.93;;
3133;SDS011;1577;49.912;10.924;2023-12-20T13:47:30;2.77;;;1.37;;
3133;SDS011;1577;49.912;10.924;2023-12-20T13:49:56;3.47;;;1.10;;
3133;SDS011;1577;49.912;10.924;2023-12-20T13:52:21;3.13;;;1.50;;
3133;SDS011;1577;49.912;10.924;2023-12-20T13:54:47;7.10;;;1.67;;
3133;SDS011;1577;49.912;10.924;2023-12-20T13:57:13;7.20;;;1.73;;
3133;SDS011;1577;49.912;10.924;2023-12-20T13:59:38;2.80;;;1.93;;
3133;SDS011;1577;49.912;10.924;2023-12-20T14:02:04;6.27;;;2.40;;
3133;SDS011;1577;49.912;10.924;2023-12-20T14:04:30;5.20;;;1.60;;
3133;SDS011;1577;49.912;10.924;2023-12-20T14:06:56;4.50;;;1.90;;
3133;SDS011;1577;49.912;10.924;2023-12-20T14:09:22;4.40;;;1.90;;
3133;SDS011;1577;49.912;10.924;2023-12-20T14:11:48;8.60;;;2.90;;
3133;SDS011;1577;49.912;10.924;2023-12-20T14:14:13;5.53;;;2.50;;
3133;SDS011;1577;49.912;10.924;2023-12-20T14:16:39;6.87;;;2.30;;
3133;SDS011;1577;49.912;10.924;2023-12-20T14:19:05;4.40;;;1.90;;
3133;SDS011;1577;49.912;10.924;2023-12-20T14:21:34;4.73;;;2.43;;
3133;SDS011;1577;49.912;10.924;2023-12-20T14:24:00;6.10;;;1.20;;
3133;SDS011;1577;49.912;10.924;2023-12-20T14:26:25;5.83;;;1.83;;
3133;SDS011;1577;49.912;10.924;2023-12-20T14:28:52;3.83;;;1.87;;
3133;SDS011;1577;49.912;10.924;2023-12-20T14:31:18;3.77;;;1.63;;
3133;SDS011;1577;49.912;10.924;2023-12-20T14:33:44;9.37;;;1.93;;
3133;SDS011;1577;49.912;10.924;2023-12-20T14:36:11;5.03;;;1.60;;
3133;SDS011;1577;49.912;10.924;2023-12-20T14:38:36;4.77;;;1.80;;
3133;SDS011;1577;49.912;10.924;2023-12-20T14:41:02;1.23;;;0.90;;
3133;SDS011;1577;49.912;10.924;2023-12-20T14:43:29;4.60;;;2.47;;
3133;SDS011;1577;49.912;10.924;2023-12-20T14:45:55;5.23;;;2.00;;
3133;SDS011;1577;49.912;10.924;2023-12-20T14:48:20;5.50;;;2.00;;
3133;SDS011;1577;49.912;10.924;2023-12-20T14:50:46;10.73;;;5.33;;
3133;SDS011;1577;49.912;10.924;2023-12-20T14:53:13;5.10;;;2.97;;
3133;SDS011;1577;49.912;10.924;2023-12-20T14:55:41;2.17;;;0.97;;
3133;SDS011;1577;49.912;10.924;2023-12-20T14:58:07;11.53;;;2.07;;
3133;SDS011;1577;49.912;10.924;2023-12-20T15:00:33;5.80;;;3.67;;